Time;durP1;ratioP1;P1;durP2;ratioP2;P2;SDS_P1;SDS_P2;PMS_P1;PMS_P2;Temp;Humidity;BMP_temperature;BMP_pressure;BME280_temperature;BME280_humidity;BME280_pressure;Samples;Min_cycle;Max_cycle;Signal;HPM_P1;HPM_P2
2022/02/20 00:00:46;;;;;;;13.63;1.83;;;7.90;99.90;;;;;;5031077;28;20029;-81
2022/02/20 00:03:12;;;;;;;13.30;2.00;;;7.90;99.90;;;;;;5030357;28;20036;-81
2022/02/20 00:05:38;;;;;;;8.10;2.00;;;7.80;99.90;;;;;;5030905;28;20477;-81
2022/02/20 00:08:05;;;;;;;10.30;1.60;;;7.80;99.90;;;;;;5030660;28;20060;-81
2022/02/20 00:10:31;;;;;;;7.37;2.40;;;7.80;99.90;;;;;;5030742;28;20037;-81
2022/02/20 00:12:57;;;;;;;10.23;2.40;;;7.80;99.90;;;;;;5029614;28;20552;-81
2022/02/20 00:15:24;;;;;;;7.37;1.83;;;7.80;99.90;;;;;;5030899;28;20033;-81
2022/02/20 00:17:53;;;;;;;7.77;1.90;;;7.70;99.90;;;;;;5030713;28;20032;-80
2022/02/20 00:20:19;;;;;;;;;;;7.60;99.90;;;;;;5030822;28;20061;-80
2022/02/20 00:22:45;;;;;;;6.57;1.90;;;7.50;99.90;;;;;;5012993;28;19949;-80
2022/02/20 00:25:11;;;;;;;5.27;1.27;;;7.50;99.90;;;;;;5012124;28;20033;-81
2022/02/20 00:27:37;;;;;;;6.57;1.40;;;7.40;99.90;;;;;;5030667;28;20034;-81
2022/02/20 00:30:04;;;;;;;14.87;2.43;;;7.40;99.90;;;;;;5030490;28;20467;-81
2022/02/20 00:32:29;;;;;;;8.93;1.77;;;7.30;99.90;;;;;;5030496;28;20037;-81
2022/02/20 00:34:56;;;;;;;9.47;2.07;;;7.20;99.90;;;;;;5012434;28;20116;-81
2022/02/20 00:37:22;;;;;;;6.90;1.87;;;7.20;99.90;;;;;;5030507;28;20152;-81
2022/02/20 00:39:47;;;;;;;11.93;2.20;;;7.20;99.90;;;;;;5012651;28;20035;-81
2022/02/20 00:42:14;;;;;;;14.10;2.47;;;7.20;99.90;;;;;;5030243;28;20026;-81
2022/02/20 00:44:39;;;;;;;10.37;2.10;;;7.20;99.90;;;;;;5012351;28;20026;-81
2022/02/20 00:47:06;;;;;;;6.57;1.60;;;7.10;99.90;;;;;;5012658;28;20513;-81
2022/02/20 00:49:32;;;;;;;8.67;1.70;;;7.10;99.90;;;;;;5012322;28;20018;-81
2022/02/20 00:51:57;;;;;;;7.67;1.77;;;7.00;99.90;;;;;;5030290;28;20448;-81
2022/02/20 00:54:23;;;;;;;8.00;1.90;;;7.00;99.90;;;;;;5030252;28;20037;-81
2022/02/20 00:56:49;;;;;;;7.97;1.90;;;7.00;99.90;;;;;;5012592;28;20034;-81
2022/02/20 00:59:15;;;;;;;9.40;1.70;;;7.00;99.90;;;;;;5030113;28;20116;-81
2022/02/20 01:01:43;;;;;;;7.63;2.10;;;7.00;99.90;;;;;;5012351;28;20116;-81
2022/02/20 01:04:09;;;;;;;12.67;2.10;;;6.90;99.90;;;;;;5012352;28;20029;-81
2022/02/20 01:06:35;;;;;;;7.20;1.70;;;6.90;99.90;;;;;;5030120;28;20028;-81
2022/02/20 01:09:02;;;;;;;9.50;1.83;;;6.90;99.90;;;;;;5012434;28;20060;-81
2022/02/20 01:11:30;;;;;;;10.87;2.50;;;6.90;99.90;;;;;;5030239;28;20436;-81
2022/02/20 01:13:56;;;;;;;7.47;1.93;;;6.90;99.90;;;;;;5012355;28;20029;-81
2022/02/20 01:16:22;;;;;;;8.53;2.07;;;6.80;99.90;;;;;;5012319;28;20049;-81
2022/02/20 01:18:48;;;;;;;8.03;1.50;;;6.90;99.90;;;;;;5028654;28;20040;-81
2022/02/20 01:21:13;;;;;;;8.13;1.93;;;6.90;99.90;;;;;;5030052;28;20044;-81
2022/02/20 01:23:39;;;;;;;6.03;1.50;;;6.80;99.90;;;;;;5029772;28;20461;-82
2022/02/20 01:26:05;;;;;;;7.20;1.73;;;6.80;99.90;;;;;;5011357;28;20034;-81
2022/02/20 01:28:31;;;;;;;7.90;1.60;;;6.80;99.90;;;;;;5029540;28;20028;-81
2022/02/20 01:30:57;;;;;;;10.10;1.70;;;6.80;99.90;;;;;;5012541;28;20047;-81
2022/02/20 01:33:23;;;;;;;8.63;1.90;;;6.80;99.90;;;;;;5012222;28;20553;-80
2022/02/20 01:35:48;;;;;;;11.00;2.90;;;6.80;99.90;;;;;;5030239;28;20044;-81
2022/02/20 01:38:15;;;;;;;9.20;1.40;;;6.80;99.90;;;;;;5016013;28;20061;-81
2022/02/20 01:40:47;;;;;;;6.63;1.50;;;6.70;99.90;;;;;;5015993;28;20039;-81
2022/02/20 01:43:13;;;;;;;9.90;1.60;;;6.70;99.90;;;;;;5015968;28;20032;-81
2022/02/20 01:45:40;;;;;;;5.77;1.60;;;6.60;99.90;;;;;;5015956;28;20030;-81
2022/02/20 01:48:08;;;;;;;8.65;1.65;;;6.60;99.90;;;;;;5015896;28;20115;-81
2022/02/20 01:50:35;;;;;;;8.07;1.50;;;6.60;99.90;;;;;;5015966;28;20124;-81
2022/02/20 01:53:01;;;;;;;9.93;1.80;;;6.60;99.90;;;;;;5015865;28;20026;-81
2022/02/20 01:55:27;;;;;;;7.63;1.80;;;6.60;99.90;;;;;;5033443;28;20500;-81
2022/02/20 01:58:12;;;;;;;8.83;1.60;;;6.60;99.90;;;;;;5033757;28;20540;-81
2022/02/20 02:01:00;;;;;;;4.93;1.13;;;6.60;99.90;;;;;;5025916;28;20040;-81
2022/02/20 02:03:42;;;;;;;7.27;1.40;;;6.50;99.90;;;;;;5033338;28;20389;-81
2022/02/20 02:06:13;;;;;;;9.90;1.40;;;6.60;99.90;;;;;;5015707;28;20112;-81
2022/02/20 02:08:40;;;;;;;7.70;1.70;;;6.60;99.90;;;;;;5032011;28;20121;-81
2022/02/20 02:11:14;;;;;;;8.77;1.67;;;6.60;99.90;;;;;;5015550;28;20032;-81
2022/02/20 02:14:00;;;;;;;9.27;1.57;;;6.60;99.90;;;;;;5032661;28;20029;-81
2022/02/20 02:16:44;;;;;;;5.93;1.47;;;6.50;99.90;;;;;;5033330;28;20041;-81
2022/02/20 02:22:03;;;;;;;10.43;1.53;;;6.50;99.90;;;;;;4992545;28;20572;-68
2022/02/20 02:24:39;;;;;;;6.20;1.60;;;6.60;99.90;;;;;;4992754;28;20022;-67
2022/02/20 02:27:23;;;;;;;11.33;1.73;;;6.50;99.90;;;;;;4994319;28;20237;-68
2022/02/20 02:30:09;;;;;;;7.63;1.40;;;6.50;99.90;;;;;;4994241;28;20022;-67
2022/02/20 02:32:35;;;;;;;;;;;6.50;99.90;;;;;;4976994;28;20030;-68
2022/02/20 02:35:01;;;;;;;7.43;2.27;;;6.50;99.90;;;;;;4976107;28;20004;-68
2022/02/20 02:37:28;;;;;;;7.73;2.73;;;6.50;99.90;;;;;;4976039;28;20041;-67
2022/02/20 02:39:54;;;;;;;6.80;1.70;;;6.50;99.90;;;;;;4959774;28;20034;-68
2022/02/20 02:42:20;;;;;;;6.67;2.13;;;6.50;99.90;;;;;;4976241;28;20035;-67
2022/02/20 02:44:48;;;;;;;8.13;1.93;;;6.50;99.90;;;;;;4976053;28;20059;-68
2022/02/20 02:47:14;;;;;;;9.60;1.73;;;6.50;99.90;;;;;;4993523;28;20100;-68
2022/02/20 02:49:40;;;;;;;6.47;1.67;;;6.50;99.90;;;;;;4991557;28;20031;-68
2022/02/20 02:52:06;;;;;;;7.67;1.90;;;6.50;99.90;;;;;;4976218;28;20439;-67
2022/02/20 02:54:33;;;;;;;9.87;1.93;;;6.50;99.90;;;;;;4976131;28;20030;-68
2022/02/20 02:56:59;;;;;;;6.73;2.47;;;6.50;99.90;;;;;;4976259;28;20184;-67
2022/02/20 02:59:25;;;;;;;9.10;2.23;;;6.60;99.90;;;;;;4960066;28;20523;-67
2022/02/20 03:01:54;;;;;;;9.77;1.93;;;6.60;99.90;;;;;;4960481;28;20030;-68
2022/02/20 03:04:21;;;;;;;6.60;2.10;;;6.60;99.90;;;;;;4992135;28;20084;-68
2022/02/20 03:06:47;;;;;;;7.53;2.23;;;6.60;99.90;;;;;;4976057;28;20034;-68
2022/02/20 03:09:15;;;;;;;8.00;2.10;;;6.60;99.90;;;;;;4975950;28;20026;-68
2022/02/20 03:11:41;;;;;;;7.10;2.07;;;6.60;99.90;;;;;;4976094;28;20567;-67
2022/02/20 03:14:13;;;;;;;9.90;2.20;;;6.50;99.90;;;;;;4975700;28;20499;-68
2022/02/20 03:16:39;;;;;;;7.13;2.10;;;6.50;99.90;;;;;;4975923;28;20026;-67
2022/02/20 03:19:08;;;;;;;8.63;2.40;;;6.50;99.90;;;;;;4975740;28;20462;-67
2022/02/20 03:21:35;;;;;;;8.77;2.10;;;6.50;99.90;;;;;;4991612;28;20049;-67
2022/02/20 03:24:03;;;;;;;4.83;2.30;;;6.50;99.90;;;;;;4975752;28;20031;-67
2022/02/20 03:26:29;;;;;;;8.60;2.20;;;6.50;99.90;;;;;;4959583;28;20022;-68
2022/02/20 03:28:59;;;;;;;7.18;2.20;;;6.50;99.90;;;;;;4975472;28;20031;-68
2022/02/20 03:31:28;;;;;;;9.87;1.83;;;6.50;99.90;;;;;;4975329;28;20073;-67
2022/02/20 03:33:54;;;;;;;3.00;1.70;;;6.50;99.90;;;;;;4991342;28;20062;-67
2022/02/20 03:36:20;;;;;;;7.00;1.87;;;6.40;99.90;;;;;;4975430;28;20491;-68
2022/02/20 03:38:46;;;;;;;10.20;2.47;;;6.40;99.90;;;;;;4975470;28;20033;-68
2022/02/20 03:41:17;;;;;;;8.03;1.60;;;6.50;99.90;;;;;;4959938;28;20041;-68
2022/02/20 03:43:43;;;;;;;5.77;1.00;;;6.50;99.90;;;;;;4991480;28;20030;-68
2022/02/20 03:46:10;;;;;;;5.43;1.10;;;6.50;99.90;;;;;;4975453;28;20026;-68
2022/02/20 03:48:52;;;;;;;6.30;1.50;;;6.50;99.90;;;;;;4975186;28;20033;-67
2022/02/20 03:51:29;;;;;;;5.60;1.10;;;6.50;99.90;;;;;;4975218;28;20030;-68
2022/02/20 03:53:55;;;;;;;6.07;1.00;;;6.50;99.90;;;;;;4974791;28;20034;-68
2022/02/20 03:56:21;;;;;;;8.57;1.60;;;6.40;99.90;;;;;;4974922;28;20033;-68
2022/02/20 03:58:51;;;;;;;8.13;1.07;;;6.40;99.90;;;;;;4974663;28;20030;-68
2022/02/20 04:01:20;;;;;;;6.65;1.73;;;6.50;99.90;;;;;;4991984;28;20034;-68
2022/02/20 04:03:47;;;;;;;7.03;1.00;;;6.50;99.90;;;;;;4990622;28;20034;-68
2022/02/20 04:06:13;;;;;;;7.80;1.63;;;6.50;99.90;;;;;;4974785;28;20121;-68
2022/02/20 04:08:47;;;;;;;6.10;1.07;;;6.50;99.90;;;;;;4990693;28;20113;-68
2022/02/20 04:11:14;;;;;;;5.67;1.00;;;6.50;99.90;;;;;;4974788;28;20461;-68
2022/02/20 04:13:50;;;;;;;8.93;1.43;;;6.50;99.90;;;;;;4974516;28;20027;-68
2022/02/20 04:16:21;;;;;;;10.23;1.40;;;6.50;99.90;;;;;;4974530;28;20668;-68
2022/02/20 04:18:52;;;;;;;5.17;1.30;;;6.50;99.90;;;;;;4974569;28;20034;-68
2022/02/20 04:21:21;;;;;;;6.05;1.42;;;6.50;99.90;;;;;;4990694;28;20129;-68
2022/02/20 04:23:50;;;;;;;5.97;1.63;;;6.50;99.90;;;;;;4974153;28;20121;-68
2022/02/20 04:26:18;;;;;;;7.80;1.27;;;6.40;99.90;;;;;;4990541;28;20038;-68
2022/02/20 04:28:45;;;;;;;7.20;1.30;;;6.40;99.90;;;;;;4974392;28;20069;-67
2022/02/20 04:31:11;;;;;;;3.00;1.33;;;6.40;99.90;;;;;;4958331;28;20137;-67
2022/02/20 04:33:38;;;;;;;4.63;1.30;;;6.40;99.90;;;;;;4974108;28;20062;-67
2022/02/20 04:36:05;;;;;;;5.27;1.30;;;6.40;99.90;;;;;;4974170;28;20443;-68
2022/02/20 04:38:32;;;;;;;7.10;1.40;;;6.30;99.90;;;;;;4990206;28;20493;-67
2022/02/20 04:41:03;;;;;;;7.87;1.50;;;6.30;99.90;;;;;;4974168;28;20030;-68
2022/02/20 04:43:32;;;;;;;6.38;2.17;;;6.30;99.90;;;;;;4974031;28;20787;-67
2022/02/20 04:46:05;;;;;;;7.97;1.67;;;6.40;99.90;;;;;;4973942;28;20077;-69
2022/02/20 04:48:31;;;;;;;6.20;1.70;;;6.40;99.90;;;;;;4973757;28;20027;-69
2022/02/20 04:50:58;;;;;;;6.03;1.70;;;6.40;99.90;;;;;;4974021;28;20414;-67
2022/02/20 04:53:24;;;;;;;6.77;1.90;;;6.40;99.90;;;;;;4991310;28;20031;-68
2022/02/20 04:56:00;;;;;;;7.23;2.07;;;6.40;99.90;;;;;;4974004;28;20065;-67
2022/02/20 04:58:36;;;;;;;7.27;1.77;;;6.40;99.90;;;;;;4991250;28;20135;-68
2022/02/20 05:01:07;;;;;;;9.30;2.37;;;6.40;99.90;;;;;;4973735;28;20042;-68
2022/02/20 05:03:52;;;;;;;7.83;2.10;;;6.40;99.90;;;;;;4991546;28;20123;-68
2022/02/20 05:06:29;;;;;;;8.50;2.30;;;6.40;99.90;;;;;;4990097;28;20096;-67
2022/02/20 05:08:56;;;;;;;8.80;2.20;;;6.40;99.90;;;;;;4973699;28;20026;-68
2022/02/20 05:11:40;;;;;;;9.83;2.50;;;6.40;99.90;;;;;;4975155;28;20034;-68
2022/02/20 05:14:09;;;;;;;10.43;2.38;;;6.40;99.90;;;;;;4978164;28;20117;-68
2022/02/20 05:16:38;;;;;;;10.40;2.13;;;6.40;99.90;;;;;;4978292;28;20034;-68
2022/02/20 05:19:07;;;;;;;10.43;2.40;;;6.40;99.90;;;;;;4978320;28;20045;-68
2022/02/20 05:21:38;;;;;;;5.83;2.10;;;6.40;99.90;;;;;;4978130;28;20125;-68
2022/02/20 05:24:05;;;;;;;7.20;2.40;;;6.40;99.90;;;;;;4977680;28;20112;-67
2022/02/20 05:26:31;;;;;;;7.20;2.00;;;6.40;99.90;;;;;;4977701;28;20034;-69
2022/02/20 05:29:00;;;;;;;;;;;6.40;99.90;;;;;;4978017;28;20487;-68
2022/02/20 05:31:26;;;;;;;6.77;2.27;;;6.40;99.90;;;;;;4994318;28;20334;-68
2022/02/20 05:33:57;;;;;;;7.13;2.10;;;6.40;99.90;;;;;;4977659;28;20137;-68
2022/02/20 05:36:24;;;;;;;7.50;2.40;;;6.40;99.90;;;;;;4961509;28;20085;-68
2022/02/20 05:39:04;;;;;;;8.83;2.47;;;6.40;99.90;;;;;;4977324;28;20054;-68
2022/02/20 05:41:31;;;;;;;9.53;2.60;;;6.40;99.90;;;;;;4977309;28;20040;-67
2022/02/20 05:43:57;;;;;;;6.63;2.30;;;6.40;99.90;;;;;;4977131;28;20050;-68
2022/02/20 05:46:28;;;;;;;7.03;2.70;;;6.40;99.90;;;;;;4977601;28;20023;-68
2022/02/20 05:48:54;;;;;;;7.70;2.90;;;6.40;99.90;;;;;;4977478;28;20069;-68
2022/02/20 05:51:40;;;;;;;15.30;3.53;;;6.40;99.90;;;;;;4977653;28;20434;-68
2022/02/20 05:54:13;;;;;;;8.13;3.10;;;6.40;99.90;;;;;;4978595;28;20027;-67
2022/02/20 05:56:39;;;;;;;10.20;3.53;;;6.40;99.90;;;;;;4979236;28;20069;-68
2022/02/20 05:59:05;;;;;;;10.63;3.40;;;6.40;99.90;;;;;;4979438;28;20475;-67
2022/02/20 06:01:33;;;;;;;11.10;3.37;;;6.40;99.90;;;;;;4978662;28;20030;-68
2022/02/20 06:04:03;;;;;;;;;;;6.40;99.90;;;;;;4977607;28;20057;-68
2022/02/20 06:06:47;;;;;;;8.20;3.53;;;6.40;99.90;;;;;;4994560;28;20668;-68
2022/02/20 06:09:26;;;;;;;9.40;4.13;;;6.40;99.90;;;;;;4976875;28;20121;-68
2022/02/20 06:12:07;;;;;;;11.33;4.20;;;6.40;99.90;;;;;;4976692;28;20038;-69
2022/02/20 06:14:47;;;;;;;10.10;4.30;;;6.30;99.90;;;;;;4976360;28;20113;-68
2022/02/20 06:17:23;;;;;;;11.57;4.37;;;6.30;99.90;;;;;;4976627;28;20042;-66
2022/02/20 06:20:21;;;;;;;10.30;3.80;;;6.30;99.90;;;;;;4982185;28;20034;-68
2022/02/20 06:23:10;;;;;;;8.35;3.90;;;6.30;99.90;;;;;;4989446;28;20277;-68
2022/02/20 06:26:02;;;;;;;11.90;4.07;;;6.30;99.90;;;;;;4989750;28;20038;-67
2022/02/20 06:28:31;;;;;;;13.13;4.63;;;6.30;99.90;;;;;;4976221;28;20034;-68
2022/02/20 06:30:57;;;;;;;9.63;4.07;;;6.40;99.90;;;;;;4992424;28;20085;-67
2022/02/20 06:33:33;;;;;;;12.70;4.90;;;6.30;99.90;;;;;;4976035;28;20130;-67
2022/02/20 06:36:09;;;;;;;12.87;4.93;;;6.20;99.90;;;;;;4976222;28;20030;-67
2022/02/20 06:38:37;;;;;;;14.20;5.63;;;6.30;99.90;;;;;;4976037;28;20068;-68
2022/02/20 06:41:03;;;;;;;15.20;5.10;;;6.30;99.90;;;;;;4993473;28;20503;-68
2022/02/20 06:43:37;;;;;;;14.10;5.03;;;6.30;99.90;;;;;;4987168;28;20030;-68
2022/02/20 06:46:23;;;;;;;12.27;5.17;;;6.30;99.90;;;;;;4985175;28;20041;-67
2022/02/20 06:49:00;;;;;;;12.87;5.30;;;6.20;99.90;;;;;;4974523;28;20022;-68
2022/02/20 06:51:53;;;;;;;14.47;5.00;;;6.30;99.90;;;;;;4985801;28;20027;-70
2022/02/20 06:54:51;;;;;;;17.97;5.00;;;6.20;99.90;;;;;;4979403;28;20038;-65
2022/02/20 06:57:36;;;;;;;14.33;4.70;;;6.30;99.90;;;;;;4991985;28;20521;-69
2022/02/20 07:00:06;;;;;;;14.63;4.87;;;6.30;99.90;;;;;;4991112;28;20041;-68
2022/02/20 07:02:33;;;;;;;18.13;6.50;;;6.30;99.90;;;;;;4991780;28;20034;-66
2022/02/20 07:04:59;;;;;;;18.37;5.10;;;6.40;99.90;;;;;;4991493;28;20026;-69
2022/02/20 07:07:25;;;;;;;16.27;5.37;;;6.40;99.90;;;;;;4990831;28;20033;-69
2022/02/20 07:09:51;;;;;;;16.17;4.63;;;6.40;99.90;;;;;;4991374;28;20468;-69
2022/02/20 07:12:17;;;;;;;15.53;4.53;;;6.50;99.90;;;;;;4991700;28;20034;-69
2022/02/20 07:14:43;;;;;;;16.27;4.87;;;6.50;99.90;;;;;;4989433;28;20121;-69
2022/02/20 07:17:09;;;;;;;15.67;4.57;;;6.50;99.90;;;;;;4991487;28;20041;-69
2022/02/20 07:19:34;;;;;;;15.33;4.53;;;6.50;99.90;;;;;;4991156;28;20035;-69
2022/02/20 07:22:00;;;;;;;12.53;4.40;;;6.50;99.90;;;;;;4991504;28;20050;-69
2022/02/20 07:24:26;;;;;;;17.07;5.10;;;6.50;99.90;;;;;;4990999;28;20035;-69
2022/02/20 07:26:52;;;;;;;21.23;5.83;;;6.50;99.90;;;;;;4991397;28;20501;-69
2022/02/20 07:29:18;;;;;;;17.77;5.60;;;6.60;99.90;;;;;;4990700;28;20042;-69
2022/02/20 07:31:44;;;;;;;16.87;4.60;;;6.60;99.90;;;;;;4991306;28;20037;-69
2022/02/20 07:34:10;;;;;;;16.43;4.93;;;6.60;99.90;;;;;;4989364;28;20030;-68
2022/02/20 07:36:41;;;;;;;17.87;4.87;;;6.60;99.90;;;;;;4990950;28;20035;-69
2022/02/20 07:39:08;;;;;;;20.97;4.37;;;6.60;99.90;;;;;;4990546;28;20038;-69
2022/02/20 07:41:35;;;;;;;20.87;4.57;;;6.60;99.90;;;;;;4990776;28;20038;-69
2022/02/20 07:44:01;;;;;;;18.17;3.73;;;6.60;99.90;;;;;;4990606;28;20033;-69
2022/02/20 07:46:26;;;;;;;17.37;3.87;;;6.70;99.90;;;;;;4990383;28;20027;-69
2022/02/20 07:48:55;;;;;;;14.97;4.03;;;6.70;99.90;;;;;;4990755;28;20443;-68
2022/02/20 07:51:21;;;;;;;18.25;3.50;;;6.90;99.90;;;;;;4990536;28;20029;-69
2022/02/20 07:53:48;;;;;;;20.77;4.50;;;6.90;99.90;;;;;;4990533;28;20478;-68
2022/02/20 07:56:14;;;;;;;19.70;3.67;;;7.00;99.90;;;;;;4990432;28;20081;-69
2022/02/20 07:58:40;;;;;;;18.67;3.43;;;7.00;99.90;;;;;;4990822;28;20038;-69
2022/02/20 08:01:06;;;;;;;16.37;3.20;;;7.10;99.90;;;;;;4990203;28;20109;-69
2022/02/20 08:03:32;;;;;;;19.47;3.40;;;7.20;99.90;;;;;;4990613;28;20154;-68
2022/02/20 08:06:00;;;;;;;15.40;2.67;;;7.30;99.90;;;;;;4990431;28;20094;-68
2022/02/20 08:08:27;;;;;;;22.23;3.47;;;7.30;99.90;;;;;;4990516;28;20412;-69
2022/02/20 08:10:53;;;;;;;16.03;3.00;;;7.40;99.90;;;;;;4990305;28;20030;-68
2022/02/20 08:13:18;;;;;;;14.03;3.43;;;7.50;99.90;;;;;;4990480;28;20424;-68
2022/02/20 08:15:44;;;;;;;20.13;3.50;;;7.60;99.90;;;;;;4989902;28;20026;-69
2022/02/20 08:18:10;;;;;;;19.60;4.37;;;7.70;99.90;;;;;;4990446;28;20034;-69
2022/02/20 08:20:36;;;;;;;17.20;4.37;;;7.80;99.90;;;;;;4990176;28;20083;-68
2022/02/20 08:23:03;;;;;;;18.17;4.27;;;7.80;99.90;;;;;;4972945;28;20026;-68
2022/02/20 08:25:29;;;;;;;19.53;4.47;;;7.90;99.90;;;;;;4972393;28;20022;-69
2022/02/20 08:27:56;;;;;;;19.30;5.17;;;7.90;99.90;;;;;;4990556;28;20022;-68
2022/02/20 08:30:23;;;;;;;19.83;7.30;;;7.90;99.90;;;;;;4990800;28;20026;-68
2022/02/20 08:32:49;;;;;;;23.50;7.07;;;8.00;99.90;;;;;;4991306;28;20042;-69
2022/02/20 08:35:15;;;;;;;27.77;8.20;;;8.10;99.90;;;;;;4990135;28;20107;-68
2022/02/20 08:37:45;;;;;;;24.27;7.30;;;8.10;99.90;;;;;;4990412;28;20141;-68
2022/02/20 08:40:13;;;;;;;23.07;7.20;;;8.20;99.90;;;;;;4989833;28;20045;-69
2022/02/20 08:42:40;;;;;;;22.27;6.40;;;8.20;99.90;;;;;;4990721;28;20077;-69
2022/02/20 08:45:07;;;;;;;19.93;5.87;;;8.20;99.90;;;;;;4989289;28;20096;-69
2022/02/20 08:47:33;;;;;;;19.60;5.87;;;8.30;99.90;;;;;;4989336;28;20015;-68
2022/02/20 08:50:01;;;;;;;16.37;5.80;;;8.30;99.90;;;;;;4972157;28;20034;-69
2022/02/20 08:52:27;;;;;;;11.43;4.03;;;8.40;99.90;;;;;;4990090;28;20089;-67
2022/02/20 08:54:55;;;;;;;18.10;5.93;;;8.50;99.90;;;;;;4989166;28;20036;-68
2022/02/20 08:57:22;;;;;;;17.67;5.57;;;8.50;99.90;;;;;;4989828;28;20034;-67
2022/02/20 08:59:52;;;;;;;14.40;4.90;;;8.60;99.90;;;;;;4989219;28;20049;-68
2022/02/20 09:02:18;;;;;;;13.77;4.30;;;8.60;99.90;;;;;;4990097;28;20045;-68
2022/02/20 09:04:44;;;;;;;17.90;4.50;;;8.70;99.90;;;;;;4989656;28;20031;-69
2022/02/20 09:07:10;;;;;;;17.60;3.63;;;8.70;99.90;;;;;;4990046;28;20104;-68
2022/02/20 09:09:36;;;;;;;11.57;2.77;;;8.70;99.90;;;;;;4972098;28;20030;-69
2022/02/20 09:12:04;;;;;;;10.73;3.40;;;8.70;99.90;;;;;;4990189;28;20498;-68
2022/02/20 09:14:30;;;;;;;11.30;2.97;;;8.70;99.90;;;;;;4971693;28;20038;-68
2022/02/20 09:16:56;;;;;;;12.60;3.30;;;8.70;99.90;;;;;;4990107;28;20502;-68
2022/02/20 09:19:22;;;;;;;18.67;4.97;;;8.70;99.90;;;;;;4989621;28;20057;-68
2022/02/20 09:21:48;;;;;;;16.30;4.97;;;8.70;99.90;;;;;;4989698;28;20133;-67
2022/02/20 09:24:14;;;;;;;13.33;3.80;;;8.70;99.90;;;;;;4989670;28;20035;-67
2022/02/20 09:26:40;;;;;;;10.37;3.63;;;8.70;99.90;;;;;;4989843;28;20586;-68
2022/02/20 09:29:07;;;;;;;10.17;3.33;;;8.70;99.90;;;;;;4988947;28;20038;-67
2022/02/20 09:31:33;;;;;;;17.10;3.70;;;8.70;99.90;;;;;;4989753;28;20022;-66
2022/02/20 09:33:59;;;;;;;10.83;3.47;;;8.80;99.90;;;;;;4989143;28;20029;-68
2022/02/20 09:36:27;;;;;;;13.50;3.37;;;8.80;99.90;;;;;;4989447;28;20040;-67
2022/02/20 09:38:56;;;;;;;12.93;3.40;;;8.80;99.90;;;;;;4988241;28;20046;-67
2022/02/20 09:41:31;;;;;;;12.87;2.80;;;8.80;99.90;;;;;;4989543;28;20495;-67
2022/02/20 09:43:59;;;;;;;10.80;2.77;;;8.80;99.90;;;;;;4989616;28;20030;-67
2022/02/20 09:46:28;;;;;;;8.73;2.57;;;8.80;99.90;;;;;;4989258;28;20054;-68
2022/02/20 09:48:56;;;;;;;14.20;3.67;;;8.80;99.90;;;;;;4989666;28;20045;-67
2022/02/20 09:51:23;;;;;;;12.77;3.47;;;8.80;99.90;;;;;;4989473;28;20121;-69
2022/02/20 09:53:49;;;;;;;13.40;3.50;;;8.70;99.90;;;;;;4989213;28;20030;-67
2022/02/20 09:56:15;;;;;;;16.37;3.77;;;8.70;99.90;;;;;;4989417;28;20035;-68
2022/02/20 09:58:42;;;;;;;17.57;4.53;;;8.80;99.90;;;;;;4992186;28;20234;-68
2022/02/20 10:01:12;;;;;;;12.83;3.90;;;8.90;99.90;;;;;;4992380;28;20412;-68
2022/02/20 10:03:43;;;;;;;14.20;4.53;;;8.90;99.90;;;;;;4993055;28;20487;-69
2022/02/20 10:06:14;;;;;;;9.60;3.10;;;8.90;99.90;;;;;;4992893;28;20034;-67
2022/02/20 10:08:43;;;;;;;16.27;5.37;;;8.90;99.90;;;;;;4975441;28;20065;-67
2022/02/20 10:11:28;;;;;;;12.73;5.10;;;9.00;99.90;;;;;;4993181;28;20054;-68
2022/02/20 10:14:04;;;;;;;13.13;4.57;;;9.10;99.90;;;;;;4992679;28;20121;-68
2022/02/20 10:16:32;;;;;;;16.63;5.23;;;9.10;99.90;;;;;;4993083;28;20129;-68
2022/02/20 10:19:01;;;;;;;14.13;4.33;;;9.20;99.90;;;;;;4993130;28;20113;-68
2022/02/20 10:21:56;;;;;;;19.50;4.73;;;9.20;99.90;;;;;;4956427;28;20043;-68
2022/02/20 10:25:03;;;;;;;17.30;6.00;;;9.20;99.90;;;;;;4992687;28;20041;-68
2022/02/20 10:27:53;;;;;;;14.37;4.30;;;9.30;99.90;;;;;;4990828;28;20467;-69
2022/02/20 10:30:28;;;;;;;11.20;3.60;;;9.30;99.90;;;;;;4991292;28;20026;-68
2022/02/20 10:33:19;;;;;;;9.13;2.67;;;9.30;99.90;;;;;;4993412;28;20132;-67
2022/02/20 10:35:48;;;;;;;9.57;2.87;;;9.40;99.90;;;;;;4992850;28;20066;-69
2022/02/20 10:38:18;;;;;;;11.40;3.22;;;9.40;99.90;;;;;;4992749;28;20046;-65
2022/02/20 10:40:47;;;;;;;9.07;2.90;;;9.50;99.90;;;;;;4991558;28;20034;-67
2022/02/20 10:43:22;;;;;;;;;;;9.50;99.90;;;;;;4993383;28;20049;-67
2022/02/20 10:45:49;;;;;;;9.40;2.77;;;9.50;99.90;;;;;;4992439;28;20079;-68
2022/02/20 10:48:17;;;;;;;8.20;2.20;;;9.50;99.90;;;;;;4992513;28;20546;-67
2022/02/20 10:50:44;;;;;;;9.33;2.47;;;9.50;99.90;;;;;;4991967;28;20027;-67
2022/02/20 10:53:23;;;;;;;15.60;3.10;;;9.60;99.90;;;;;;4991930;28;20253;-68
2022/02/20 10:55:51;;;;;;;13.55;2.65;;;9.60;99.90;;;;;;4991716;28;20068;-68
2022/02/20 10:58:23;;;;;;;14.03;3.00;;;9.70;99.90;;;;;;4991849;28;20026;-68
2022/02/20 11:00:52;;;;;;;12.43;2.80;;;9.70;99.90;;;;;;4991035;28;20045;-68
2022/02/20 11:03:22;;;;;;;18.08;4.15;;;9.70;99.90;;;;;;4991531;28;20049;-69
2022/02/20 11:05:48;;;;;;;13.15;3.20;;;9.70;99.90;;;;;;4991539;28;20041;-68
2022/02/20 11:08:16;;;;;;;14.33;3.33;;;9.70;99.90;;;;;;4991713;28;20506;-68
2022/02/20 11:10:43;;;;;;;14.57;2.42;;;9.70;99.90;;;;;;4991226;28;20022;-68
2022/02/20 11:13:10;;;;;;;15.70;3.23;;;9.70;99.90;;;;;;4991662;28;20029;-69
2022/02/20 11:15:37;;;;;;;12.60;2.47;;;9.70;99.90;;;;;;4991155;28;20018;-68
2022/02/20 11:18:06;;;;;;;15.10;3.17;;;9.70;99.90;;;;;;4991928;28;20149;-68
2022/02/20 11:20:34;;;;;;;13.43;2.60;;;9.80;99.90;;;;;;4991500;28;20030;-68
2022/02/20 11:23:03;;;;;;;14.67;3.63;;;9.80;99.90;;;;;;4991700;28;20026;-68
2022/02/20 11:25:30;;;;;;;9.70;2.60;;;9.80;99.90;;;;;;4991407;28;20133;-67
2022/02/20 11:27:59;;;;;;;7.40;1.83;;;9.90;99.90;;;;;;4991660;28;20142;-69
2022/02/20 11:30:26;;;;;;;9.53;2.37;;;9.90;99.90;;;;;;4991057;28;20033;-67
2022/02/20 11:32:59;;;;;;;8.63;1.87;;;9.90;99.90;;;;;;4991412;28;20022;-68
2022/02/20 11:35:26;;;;;;;11.17;2.63;;;9.90;99.90;;;;;;4991206;28;20030;-68
2022/02/20 11:37:57;;;;;;;16.30;2.33;;;9.80;99.90;;;;;;4991553;28;20034;-68
2022/02/20 11:40:26;;;;;;;11.70;1.80;;;9.90;99.90;;;;;;4991252;28;20033;-68
2022/02/20 11:43:01;;;;;;;10.10;2.33;;;9.80;99.90;;;;;;4991534;28;20030;-68
2022/02/20 11:45:32;;;;;;;11.33;2.40;;;9.80;99.90;;;;;;4973162;28;20053;-68
2022/02/20 11:48:06;;;;;;;13.93;2.40;;;9.80;99.90;;;;;;4991674;28;20394;-68
2022/02/20 11:50:42;;;;;;;12.23;2.10;;;9.80;99.90;;;;;;4991253;28;20026;-68
2022/02/20 11:53:10;;;;;;;13.10;2.50;;;9.80;99.90;;;;;;4991231;28;20153;-68
2022/02/20 11:55:39;;;;;;;11.43;2.13;;;9.80;99.90;;;;;;4989608;28;20026;-68
2022/02/20 11:58:11;;;;;;;12.88;2.97;;;9.80;99.90;;;;;;4991144;28;20137;-68
2022/02/20 12:01:03;;;;;;;9.90;1.90;;;9.80;99.90;;;;;;4990860;28;20388;-68
2022/02/20 12:03:30;;;;;;;8.43;1.90;;;9.80;99.90;;;;;;4991203;28;20097;-68
2022/02/20 12:06:14;;;;;;;11.20;2.67;;;9.80;99.90;;;;;;4990844;28;20034;-68
2022/02/20 12:08:46;;;;;;;13.13;2.77;;;9.80;99.90;;;;;;4991017;28;20120;-68
2022/02/20 12:11:21;;;;;;;15.27;2.37;;;9.90;99.90;;;;;;4990978;28;20041;-68
2022/02/20 12:13:53;;;;;;;14.77;2.23;;;9.80;99.90;;;;;;4990704;28;20049;-68
2022/02/20 12:16:25;;;;;;;12.40;2.70;;;9.80;99.90;;;;;;4990438;28;20026;-68
2022/02/20 12:19:14;;;;;;;14.53;2.93;;;9.80;99.90;;;;;;4973244;28;20368;-68
2022/02/20 12:22:00;;;;;;;11.65;2.75;;;9.90;99.90;;;;;;4989989;28;20026;-68
2022/02/20 12:24:26;;;;;;;12.40;2.97;;;9.80;99.90;;;;;;4990403;28;20116;-68
2022/02/20 12:26:57;;;;;;;11.63;2.97;;;9.80;99.90;;;;;;4990943;28;20429;-67
2022/02/20 12:29:32;;;;;;;16.10;2.67;;;9.90;99.90;;;;;;4972219;28;20038;-67
2022/02/20 12:32:06;;;;;;;17.33;2.93;;;9.90;99.90;;;;;;4990472;28;20039;-67
2022/02/20 12:35:02;;;;;;;13.23;2.80;;;9.90;99.90;;;;;;4989673;28;20030;-65
2022/02/20 12:37:34;;;;;;;15.93;3.07;;;10.00;99.90;;;;;;4990263;28;20030;-66
2022/02/20 12:40:06;;;;;;;11.23;2.20;;;10.00;99.90;;;;;;4990132;28;20030;-66
2022/02/20 12:42:37;;;;;;;13.47;2.63;;;10.00;99.90;;;;;;4990432;28;20034;-66
2022/02/20 12:45:09;;;;;;;12.27;2.00;;;10.00;99.90;;;;;;4989992;28;20046;-66
2022/02/20 12:47:38;;;;;;;17.33;3.07;;;10.00;99.90;;;;;;4990447;28;20361;-65
2022/02/20 12:50:05;;;;;;;13.90;2.90;;;10.00;99.90;;;;;;4989973;28;20476;-65
2022/02/20 12:52:35;;;;;;;15.25;3.70;;;10.10;99.90;;;;;;4989925;28;20030;-65
2022/02/20 12:55:01;;;;;;;10.77;2.67;;;10.10;99.90;;;;;;4972147;28;20137;-67
2022/02/20 12:57:28;;;;;;;16.23;3.00;;;10.20;99.90;;;;;;4990027;28;20038;-67
2022/02/20 12:59:56;;;;;;;15.43;2.73;;;10.20;99.90;;;;;;4989662;28;20614;-66
2022/02/20 13:02:41;;;;;;;13.60;3.25;;;10.20;99.90;;;;;;4990061;28;20537;-67
2022/02/20 13:05:09;;;;;;;15.73;3.20;;;10.20;99.90;;;;;;4989765;28;20172;-67
2022/02/20 13:07:49;;;;;;;18.03;3.40;;;10.20;99.90;;;;;;4990195;28;20022;-66
2022/02/20 13:10:25;;;;;;;13.93;3.10;;;10.20;99.90;;;;;;4989996;28;20101;-67